Cheyenne, OK

11:23 AM CDT on April 19, 2015 (GMT -0500)
RAWS | | Change Station
CLOSE
Current Station
Personal Weather Station
Location: Reydon, OK
Elevation: 2352 ft
Nearby Weather Stations
Active Advisory: Wind Advisory

Elev 2352 ft 35.71 °N, 99.90 °W | Updated 25 minutes ago

Clear
Clear
54 °F
Feels Like 54 °F
N
13
Wind Variable Wind from WNW
Gusts 26.0 mph

Today
High -- | Low -- °F
--% Chance of Precip.
Yesterday
High -- | Low -- °F
Precip. -- in
7:01 AM 8:15 PM
New Moon, 1% visible
Pressure 29.79 in
Visibility 10.0 miles
Clouds Clear
Dew Point 43 °F
Humidity 66%
Rainfall in
Snow Depth Not available.
UV 7 out of 12
Pollen 10.10 out of 12
Air Quality Not available.
Flu Activity Regional
METAR KCSM 191553Z AUTO 31015G20KT 10SM CLR 16/08 A2983 RMK AO2 SLP088 T01560078

More Conditions Fewer Conditions

Pressure 29.79 in
Visibility 10.0 miles
Clouds Clear
Dew Point 43 °F
Humidity 66%
Rainfall in
Snow Depth Not available.
UV 7 out of 12
Pollen 10.10 out of 12
Air Quality Not available.
Flu Activity Regional
METAR KCSM 191553Z AUTO 31015G20KT 10SM CLR 16/08 A2983 RMK AO2 SLP088 T01560078

More Conditions Fewer Conditions

10-Day Weather Forecast

Almanac

Astronomy

Apr. 19, 2015 Rise Set
Actual Time
Civil Twilight
Nautical Twilight
Astronomical Twilight
Moon
Length of Visible Light
Length of Day
Tomorrow will be .
, % of the Moon is Illuminated

Today's Extremes

State Highs State Lows

Community

WunderPhotos

Upload Photos

1,814,844 photos uploaded!

WunderBlogs® & News

Nearby

Air Quality

  Air Quality AQ Index Pollutant
Not available.

Snow Depth

Station Depth Elevation

Earthquake Activity

City Distance Mag. Time & Date
Minimum magnitude displayed is 2.5.

Coastal Water Temperatures

Place Temperature

Stations

Nearby Weather Stations

Station Location Temp. Windchill Dew Point Humidity Wind Precip. Elev Updated Type
                   
Wind Advisory
Statement as of 10:47 AM CDT on April 19, 2015

... Wind Advisory in effect until 5 PM CDT this afternoon...

The National Weather Service in Norman has issued a Wind
Advisory... which is in effect until 5 PM CDT this afternoon.

* Timing: noon to 5 PM today

* winds: northwest winds 25 to 35 mph... with gusts of 45 to 50 mph
possible.

* Impacts: travel on east west oriented roadways will become
difficult... especially in high profile and lightweight vehicles.
Lightweight objects that are not secured may be lofted by the
strong winds.

Precautionary/preparedness actions...

Be careful if you have to travel or if you are working or playing
outside.



Austin